Impacts TAF Board
For situational awareness. Not to be used for flight planning purposes.
IDs:

KDMN - Deming Muni, NM, US

Issued at 2040 UTC 02 Aug 2021
Updated at 2158 UTC 02 Aug 2021
Potential Impact None Slight Moderate High
Time2153Z 02/22Z 02/23Z 03/00Z 03/01Z 03/02Z 03/03Z 03/04Z 03/05Z 03/06Z 03/07Z 03/08Z 03/09Z 03/10Z>>
Type OBS PRVL PRVL PRVL PRVL PRVL PRVL PRVL PRVL PRVL PRVL PRVL PRVL PRVL
VIS 10 >6 >6 >6 >6 >6 >6 >6 >6 >6 >6 >6 >6 >6
CIG -- -- -- -- -- 150 150 150 150 150 150 150 150 150
Cover CLR SCT SCT SCT SCT BKN BKN BKN BKN BKN BKN BKN BKN BKN
FltCat VFR VFR VFR VFR VFR VFR VFR VFR VFR VFR VFR VFR VFR VFR
WX -- VCTS VCTS VCTS VCTS -- -- -- -- -- -- -- -- --
WDir 10 60 60 60 60 50 50 50 50 50 50 50 50 50
WSpd 7 10 10 10 10 9 9 9 9 9 9 9 9 9
WGst -- 20 20 20 20 -- -- -- -- -- -- -- -- --
Raw TAF
KDMN 022040Z 0221/0318 06010G20KT P6SM VCTS SCT080CB
  TEMPO 0221/0222 VRB20G30KT 5SM TSRA SCT050CB
  FM030200 05009KT P6SM BKN150


Raw METAR
KDMN 022153Z AUTO 01007KT 10SM CLR 29/15 A3019 RMK AO2 RAB06E24 SLP146 P0000 T02890150
KDMN 022053Z AUTO 36011KT 10SM SCT070 BKN090 30/14 A3020 RMK AO2 SLP146 T03000144 56021
KDMN 021953Z AUTO 05007G19KT 020V080 10SM CLR 32/13 A3022 RMK AO2 LTG DSNT N SLP148 T03220133
KDMN 021853Z AUTO 10006G20KT 10SM CLR 30/14 A3025 RMK AO2 LTG DSNT N SLP159 T03000139

METAR Board
Radar Display
Forecast Discussion
For situational awareness. Not to be used for flight planning purposes.